< Typhoon 199809 1998 Season Typhoon 199811 >
Typhoon 199810 (ZEB)
General InformationTrack Information on Google MapsDetailed Wind InformationList of All Images || NewsDisaster Info.ResourceGoogle EarthGE AnimationAtom FeedGeoJSON
Detalied Best Track (Time Zone = UTC)
Year Month Day Hour Lat. Long. Pressure (hPa) Wind (kt) Class Image Chart
1998 10 10 00 11.1 141.4 1004 0 2 Image Chart
1998 10 10 06 10.7 140.7 1002 0 2 Image Chart
1998 10 10 12 10.4 140.0 1000 0 2 Image Chart
1998 10 10 18 10.3 138.9 996 35 3 Image Chart
1998 10 11 00 10.7 137.7 990 45 3 Image Chart
1998 10 11 06 11.1 136.5 985 50 4 Image Chart
1998 10 11 12 11.2 134.9 980 55 4 Image Chart
1998 10 11 18 11.2 133.6 980 55 4 Image Chart
1998 10 12 00 11.4 132.6 975 65 5 Image Chart
1998 10 12 06 12.3 131.3 970 65 5 Image Chart
1998 10 12 12 12.7 130.0 965 70 5 Image Chart
1998 10 12 18 13.7 129.1 955 75 5 Image Chart
1998 10 13 00 14.7 127.8 930 90 5 Image Chart
1998 10 13 06 15.6 126.0 920 100 5 Image Chart
1998 10 13 12 16.0 124.7 910 105 5 Image Chart
1998 10 13 18 16.2 123.8 900 110 5 Image Chart
1998 10 14 00 17.0 122.8 900 110 5 Image Chart
1998 10 14 06 17.3 121.8 930 100 5 Image Chart
1998 10 14 12 17.9 121.5 940 90 5 Image Chart
1998 10 14 18 18.7 121.3 940 90 5 Image Chart
1998 10 15 00 19.5 121.1 940 90 5 Image Chart
1998 10 15 06 20.3 121.0 940 90 5 Image Chart
1998 10 15 09 20.8 121.1 940 90 5 Image Chart
1998 10 15 12 21.3 121.2 945 85 5 Image Chart
1998 10 15 15 21.9 121.4 955 75 5 Image Chart
1998 10 15 18 22.7 121.7 960 75 5 Image Chart
1998 10 15 21 23.6 122.0 965 65 5 Image Chart
1998 10 16 00 24.5 122.3 970 60 4 Image Chart
1998 10 16 03 25.0 122.6 970 60 4 Image Chart
1998 10 16 06 25.5 123.0 970 60 4 Image Chart
1998 10 16 09 26.0 123.5 975 60 4 Image Chart
1998 10 16 12 26.5 124.2 975 60 4 Image Chart
1998 10 16 15 27.2 124.9 975 60 4 Image Chart
1998 10 16 18 27.8 125.6 975 60 4 Image Chart
1998 10 16 21 28.8 126.9 975 60 4 Image Chart
1998 10 17 00 29.6 128.2 975 60 4 Image Chart
1998 10 17 03 30.4 129.3 975 60 4 Image Chart
1998 10 17 06 31.0 129.8 975 50 4 Image Chart
1998 10 17 07 31.1 130.0 975 50 4 Image Chart
1998 10 17 09 31.9 131.2 975 50 4 Image Chart
1998 10 17 12 32.9 132.6 980 50 4 Image Chart
1998 10 17 14 33.9 133.8 980 50 4 Image Chart
1998 10 17 15 34.8 134.2 980 50 4 Image Chart
1998 10 17 18 36.9 135.8 980 50 4 Image Chart
1998 10 17 21 39.0 137.6 980 50 4 Image Chart
1998 10 18 00 41.0 139.0 980 0 6 Image Chart
1998 10 18 06 43.8 140.9 986 0 6 Image Chart
1998 10 18 12 46.1 144.5 990 0 6 Image Chart
1998 10 18 18 48.0 148.3 992 0 6 Image Chart
1998 10 19 00 49.0 150.6 994 0 6 Image Chart
1998 10 19 06 50.7 154.3 994 0 6 Image Chart
1998 10 19 12 51.1 159.5 996 0 6 Image Chart
1998 10 19 18 51.1 162.9 1000 0 6 Image Chart
1998 10 20 00 50.8 165.7 1004 0 6 Image Chart
Japan Meteorological Agency Best Track Data | Correction Date : 1999-01-11
< Typhoon 199809 1998 Season Typhoon 199811 >

Help